sensor_id;sensor_type;location;lat;lon;timestamp;P1;durP1;ratioP1;P2;durP2;ratioP2
62844;SDS011;48929;47.910;20.390;2023-02-11T00:02:16;50.47;;;21.27;;
62844;SDS011;48929;47.910;20.390;2023-02-11T00:04:45;44.50;;;20.80;;
62844;SDS011;48929;47.910;20.390;2023-02-11T00:07:14;56.42;;;22.27;;
62844;SDS011;48929;47.910;20.390;2023-02-11T00:09:42;41.60;;;20.05;;
62844;SDS011;48929;47.910;20.390;2023-02-11T00:12:11;42.90;;;19.02;;
62844;SDS011;48929;47.910;20.390;2023-02-11T00:14:39;50.30;;;20.52;;
62844;SDS011;48929;47.910;20.390;2023-02-11T00:17:11;48.75;;;20.58;;
62844;SDS011;48929;47.910;20.390;2023-02-11T00:19:42;54.33;;;20.45;;
62844;SDS011;48929;47.910;20.390;2023-02-11T00:22:10;42.65;;;18.70;;
62844;SDS011;48929;47.910;20.390;2023-02-11T00:24:39;45.17;;;19.70;;
62844;SDS011;48929;47.910;20.390;2023-02-11T00:27:08;47.17;;;20.30;;
62844;SDS011;48929;47.910;20.390;2023-02-11T00:29:37;50.35;;;20.13;;
62844;SDS011;48929;47.910;20.390;2023-02-11T00:32:06;49.72;;;20.73;;
62844;SDS011;48929;47.910;20.390;2023-02-11T00:34:35;51.20;;;22.60;;
62844;SDS011;48929;47.910;20.390;2023-02-11T00:37:05;42.05;;;19.38;;
62844;SDS011;48929;47.910;20.390;2023-02-11T00:39:34;44.50;;;20.40;;
62844;SDS011;48929;47.910;20.390;2023-02-11T00:42:04;46.60;;;19.60;;
62844;SDS011;48929;47.910;20.390;2023-02-11T00:44:32;49.20;;;20.33;;
62844;SDS011;48929;47.910;20.390;2023-02-11T00:47:05;42.15;;;18.45;;
62844;SDS011;48929;47.910;20.390;2023-02-11T00:49:34;40.33;;;20.48;;
62844;SDS011;48929;47.910;20.390;2023-02-11T00:52:03;52.83;;;19.55;;
62844;SDS011;48929;47.910;20.390;2023-02-11T00:54:33;42.42;;;20.23;;
62844;SDS011;48929;47.910;20.390;2023-02-11T00:57:02;39.90;;;19.27;;
62844;SDS011;48929;47.910;20.390;2023-02-11T00:59:31;43.30;;;20.65;;
62844;SDS011;48929;47.910;20.390;2023-02-11T01:02:00;41.85;;;19.23;;
62844;SDS011;48929;47.910;20.390;2023-02-11T01:04:28;44.58;;;17.42;;
62844;SDS011;48929;47.910;20.390;2023-02-11T01:06:57;41.15;;;19.27;;
62844;SDS011;48929;47.910;20.390;2023-02-11T01:09:27;43.47;;;18.60;;
62844;SDS011;48929;47.910;20.390;2023-02-11T01:11:57;43.40;;;20.15;;
62844;SDS011;48929;47.910;20.390;2023-02-11T01:14:29;49.03;;;19.58;;
62844;SDS011;48929;47.910;20.390;2023-02-11T01:16:57;56.45;;;21.17;;
62844;SDS011;48929;47.910;20.390;2023-02-11T01:19:26;41.33;;;17.60;;
62844;SDS011;48929;47.910;20.390;2023-02-11T01:21:56;34.30;;;15.52;;
62844;SDS011;48929;47.910;20.390;2023-02-11T01:24:24;25.02;;;12.73;;
62844;SDS011;48929;47.910;20.390;2023-02-11T01:26:54;42.88;;;18.60;;
62844;SDS011;48929;47.910;20.390;2023-02-11T01:29:24;31.67;;;16.08;;
62844;SDS011;48929;47.910;20.390;2023-02-11T01:31:53;40.65;;;17.52;;
62844;SDS011;48929;47.910;20.390;2023-02-11T01:34:21;46.78;;;18.63;;
62844;SDS011;48929;47.910;20.390;2023-02-11T01:36:50;36.33;;;16.35;;
62844;SDS011;48929;47.910;20.390;2023-02-11T01:39:18;42.00;;;17.52;;
62844;SDS011;48929;47.910;20.390;2023-02-11T01:41:47;43.42;;;19.05;;
62844;SDS011;48929;47.910;20.390;2023-02-11T01:44:25;39.72;;;17.17;;
62844;SDS011;48929;47.910;20.390;2023-02-11T01:46:55;35.90;;;17.85;;
62844;SDS011;48929;47.910;20.390;2023-02-11T01:49:25;39.45;;;17.38;;
62844;SDS011;48929;47.910;20.390;2023-02-11T01:51:57;40.08;;;17.83;;
62844;SDS011;48929;47.910;20.390;2023-02-11T01:54:29;40.72;;;16.77;;
62844;SDS011;48929;47.910;20.390;2023-02-11T01:57:17;35.75;;;15.73;;
62844;SDS011;48929;47.910;20.390;2023-02-11T02:00:09;30.48;;;15.45;;
62844;SDS011;48929;47.910;20.390;2023-02-11T02:02:42;31.25;;;15.70;;
62844;SDS011;48929;47.910;20.390;2023-02-11T02:05:18;39.47;;;16.80;;
62844;SDS011;48929;47.910;20.390;2023-02-11T02:07:54;38.75;;;15.60;;
62844;SDS011;48929;47.910;20.390;2023-02-11T02:10:30;29.95;;;15.27;;
62844;SDS011;48929;47.910;20.390;2023-02-11T02:13:02;31.92;;;14.55;;
62844;SDS011;48929;47.910;20.390;2023-02-11T02:15:32;39.17;;;15.15;;
62844;SDS011;48929;47.910;20.390;2023-02-11T02:18:08;39.38;;;16.65;;
62844;SDS011;48929;47.910;20.390;2023-02-11T02:24:02;24.38;;;13.23;;
62844;SDS011;48929;47.910;20.390;2023-02-11T02:30:09;39.25;;;16.38;;
62844;SDS011;48929;47.910;20.390;2023-02-11T02:33:06;29.45;;;13.85;;
62844;SDS011;48929;47.910;20.390;2023-02-11T02:35:52;25.70;;;13.77;;
62844;SDS011;48929;47.910;20.390;2023-02-11T02:38:32;23.77;;;14.98;;
62844;SDS011;48929;47.910;20.390;2023-02-11T02:41:06;31.90;;;13.57;;
62844;SDS011;48929;47.910;20.390;2023-02-11T02:43:40;30.80;;;13.00;;
62844;SDS011;48929;47.910;20.390;2023-02-11T02:46:12;28.48;;;14.63;;
62844;SDS011;48929;47.910;20.390;2023-02-11T02:48:44;32.08;;;15.80;;
62844;SDS011;48929;47.910;20.390;2023-02-11T02:51:16;37.78;;;13.98;;
62844;SDS011;48929;47.910;20.390;2023-02-11T02:54:02;25.45;;;12.63;;
62844;SDS011;48929;47.910;20.390;2023-02-11T02:56:45;23.83;;;12.00;;
62844;SDS011;48929;47.910;20.390;2023-02-11T02:59:22;28.38;;;13.95;;
62844;SDS011;48929;47.910;20.390;2023-02-11T03:01:58;32.95;;;13.88;;
62844;SDS011;48929;47.910;20.390;2023-02-11T03:04:36;31.42;;;14.27;;
62844;SDS011;48929;47.910;20.390;2023-02-11T03:07:15;27.48;;;14.45;;
62844;SDS011;48929;47.910;20.390;2023-02-11T03:09:53;31.60;;;14.18;;
62844;SDS011;48929;47.910;20.390;2023-02-11T03:12:26;30.73;;;13.88;;
62844;SDS011;48929;47.910;20.390;2023-02-11T03:14:58;38.33;;;15.48;;
62844;SDS011;48929;47.910;20.390;2023-02-11T03:17:29;26.38;;;13.70;;
62844;SDS011;48929;47.910;20.390;2023-02-11T03:20:02;20.77;;;10.65;;
62844;SDS011;48929;47.910;20.390;2023-02-11T03:22:34;25.45;;;12.15;;
62844;SDS011;48929;47.910;20.390;2023-02-11T03:25:07;23.45;;;11.88;;
62844;SDS011;48929;47.910;20.390;2023-02-11T03:27:37;37.00;;;14.20;;
62844;SDS011;48929;47.910;20.390;2023-02-11T03:30:09;37.33;;;14.98;;
62844;SDS011;48929;47.910;20.390;2023-02-11T03:32:45;36.38;;;14.13;;
62844;SDS011;48929;47.910;20.390;2023-02-11T03:35:20;27.40;;;14.13;;
62844;SDS011;48929;47.910;20.390;2023-02-11T03:37:52;31.38;;;15.75;;
62844;SDS011;48929;47.910;20.390;2023-02-11T03:40:25;25.20;;;12.27;;
62844;SDS011;48929;47.910;20.390;2023-02-11T03:42:56;29.23;;;12.65;;
62844;SDS011;48929;47.910;20.390;2023-02-11T03:45:27;30.60;;;14.35;;
62844;SDS011;48929;47.910;20.390;2023-02-11T03:47:58;33.90;;;13.48;;
62844;SDS011;48929;47.910;20.390;2023-02-11T03:50:31;25.02;;;13.00;;
62844;SDS011;48929;47.910;20.390;2023-02-11T03:53:01;34.85;;;13.68;;
62844;SDS011;48929;47.910;20.390;2023-02-11T03:55:30;36.60;;;15.88;;
62844;SDS011;48929;47.910;20.390;2023-02-11T03:58:02;35.65;;;16.60;;
62844;SDS011;48929;47.910;20.390;2023-02-11T04:00:31;35.67;;;15.45;;
62844;SDS011;48929;47.910;20.390;2023-02-11T04:03:02;31.00;;;16.20;;
62844;SDS011;48929;47.910;20.390;2023-02-11T04:05:33;36.38;;;16.15;;
62844;SDS011;48929;47.910;20.390;2023-02-11T04:08:01;34.53;;;15.35;;
62844;SDS011;48929;47.910;20.390;2023-02-11T04:10:31;27.23;;;15.02;;
62844;SDS011;48929;47.910;20.390;2023-02-11T04:13:00;33.50;;;17.08;;
62844;SDS011;48929;47.910;20.390;2023-02-11T04:15:29;39.67;;;17.05;;
62844;SDS011;48929;47.910;20.390;2023-02-11T04:17:58;36.08;;;17.15;;
62844;SDS011;48929;47.910;20.390;2023-02-11T04:20:27;35.00;;;17.27;;
62844;SDS011;48929;47.910;20.390;2023-02-11T04:22:58;33.03;;;15.98;;
62844;SDS011;48929;47.910;20.390;2023-02-11T04:25:27;35.20;;;16.73;;
62844;SDS011;48929;47.910;20.390;2023-02-11T04:27:56;49.97;;;24.98;;
62844;SDS011;48929;47.910;20.390;2023-02-11T04:30:25;38.67;;;19.00;;
62844;SDS011;48929;47.910;20.390;2023-02-11T04:32:53;48.03;;;21.45;;
62844;SDS011;48929;47.910;20.390;2023-02-11T04:35:22;43.22;;;20.08;;
62844;SDS011;48929;47.910;20.390;2023-02-11T04:37:50;39.67;;;18.52;;
62844;SDS011;48929;47.910;20.390;2023-02-11T04:40:21;34.90;;;18.48;;
62844;SDS011;48929;47.910;20.390;2023-02-11T04:42:50;42.67;;;18.73;;
62844;SDS011;48929;47.910;20.390;2023-02-11T04:45:21;40.40;;;18.33;;
62844;SDS011;48929;47.910;20.390;2023-02-11T04:47:50;38.65;;;17.73;;
62844;SDS011;48929;47.910;20.390;2023-02-11T04:50:18;39.50;;;17.45;;
62844;SDS011;48929;47.910;20.390;2023-02-11T04:52:47;37.10;;;17.55;;
62844;SDS011;48929;47.910;20.390;2023-02-11T04:55:16;29.98;;;15.85;;
62844;SDS011;48929;47.910;20.390;2023-02-11T04:57:46;37.63;;;17.77;;
62844;SDS011;48929;47.910;20.390;2023-02-11T05:00:15;30.52;;;15.90;;
62844;SDS011;48929;47.910;20.390;2023-02-11T05:02:44;33.45;;;16.45;;
62844;SDS011;48929;47.910;20.390;2023-02-11T05:05:13;44.65;;;18.45;;
62844;SDS011;48929;47.910;20.390;2023-02-11T05:07:42;49.45;;;19.60;;
62844;SDS011;48929;47.910;20.390;2023-02-11T05:10:10;29.02;;;17.73;;
62844;SDS011;48929;47.910;20.390;2023-02-11T05:12:39;42.60;;;17.48;;
62844;SDS011;48929;47.910;20.390;2023-02-11T05:15:10;36.40;;;17.25;;
62844;SDS011;48929;47.910;20.390;2023-02-11T05:17:39;44.13;;;16.77;;
62844;SDS011;48929;47.910;20.390;2023-02-11T05:20:08;35.55;;;15.50;;
62844;SDS011;48929;47.910;20.390;2023-02-11T05:22:38;32.20;;;16.15;;
62844;SDS011;48929;47.910;20.390;2023-02-11T05:25:08;38.80;;;17.23;;
62844;SDS011;48929;47.910;20.390;2023-02-11T05:27:36;40.28;;;16.73;;
62844;SDS011;48929;47.910;20.390;2023-02-11T05:30:06;41.85;;;17.25;;
62844;SDS011;48929;47.910;20.390;2023-02-11T05:32:37;38.72;;;16.73;;
62844;SDS011;48929;47.910;20.390;2023-02-11T05:35:07;32.53;;;15.68;;
62844;SDS011;48929;47.910;20.390;2023-02-11T05:37:36;33.25;;;15.38;;
62844;SDS011;48929;47.910;20.390;2023-02-11T05:40:05;37.58;;;17.42;;
62844;SDS011;48929;47.910;20.390;2023-02-11T05:42:34;37.78;;;16.25;;
62844;SDS011;48929;47.910;20.390;2023-02-11T05:45:03;30.70;;;15.40;;
62844;SDS011;48929;47.910;20.390;2023-02-11T05:47:32;32.28;;;15.38;;
62844;SDS011;48929;47.910;20.390;2023-02-11T05:50:02;38.13;;;15.82;;
62844;SDS011;48929;47.910;20.390;2023-02-11T05:52:31;38.13;;;16.35;;
62844;SDS011;48929;47.910;20.390;2023-02-11T05:55:00;31.40;;;14.10;;
62844;SDS011;48929;47.910;20.390;2023-02-11T05:57:29;33.28;;;16.50;;
62844;SDS011;48929;47.910;20.390;2023-02-11T06:00:01;35.38;;;17.50;;
62844;SDS011;48929;47.910;20.390;2023-02-11T06:02:30;38.55;;;17.67;;
62844;SDS011;48929;47.910;20.390;2023-02-11T06:04:59;31.35;;;15.52;;
62844;SDS011;48929;47.910;20.390;2023-02-11T06:07:29;37.50;;;16.55;;
62844;SDS011;48929;47.910;20.390;2023-02-11T06:09:58;36.10;;;15.77;;
62844;SDS011;48929;47.910;20.390;2023-02-11T06:12:27;30.48;;;14.00;;
62844;SDS011;48929;47.910;20.390;2023-02-11T06:14:55;33.78;;;16.52;;
62844;SDS011;48929;47.910;20.390;2023-02-11T06:17:24;30.67;;;14.73;;
62844;SDS011;48929;47.910;20.390;2023-02-11T06:19:52;27.73;;;16.20;;
62844;SDS011;48929;47.910;20.390;2023-02-11T06:22:21;35.45;;;18.27;;
62844;SDS011;48929;47.910;20.390;2023-02-11T06:24:52;32.67;;;17.38;;
62844;SDS011;48929;47.910;20.390;2023-02-11T06:27:27;38.85;;;16.65;;
62844;SDS011;48929;47.910;20.390;2023-02-11T06:29:57;33.50;;;16.42;;
62844;SDS011;48929;47.910;20.390;2023-02-11T06:32:25;36.33;;;16.70;;
62844;SDS011;48929;47.910;20.390;2023-02-11T06:35:10;39.25;;;16.15;;
62844;SDS011;48929;47.910;20.390;2023-02-11T06:37:39;36.13;;;16.88;;
62844;SDS011;48929;47.910;20.390;2023-02-11T06:40:10;39.67;;;18.15;;
62844;SDS011;48929;47.910;20.390;2023-02-11T06:42:39;41.75;;;17.95;;
62844;SDS011;48929;47.910;20.390;2023-02-11T06:45:08;51.15;;;21.17;;
62844;SDS011;48929;47.910;20.390;2023-02-11T06:47:39;47.83;;;20.67;;
62844;SDS011;48929;47.910;20.390;2023-02-11T06:50:10;47.17;;;21.80;;
62844;SDS011;48929;47.910;20.390;2023-02-11T06:52:40;41.08;;;20.08;;
62844;SDS011;48929;47.910;20.390;2023-02-11T06:55:11;61.78;;;25.73;;
62844;SDS011;48929;47.910;20.390;2023-02-11T06:57:40;53.70;;;22.88;;
62844;SDS011;48929;47.910;20.390;2023-02-11T07:00:09;49.72;;;22.27;;
62844;SDS011;48929;47.910;20.390;2023-02-11T07:02:39;48.70;;;22.33;;
62844;SDS011;48929;47.910;20.390;2023-02-11T07:05:08;53.28;;;23.80;;
62844;SDS011;48929;47.910;20.390;2023-02-11T07:07:38;52.72;;;22.25;;
62844;SDS011;48929;47.910;20.390;2023-02-11T07:10:07;47.30;;;21.88;;
62844;SDS011;48929;47.910;20.390;2023-02-11T07:12:37;54.05;;;22.42;;
62844;SDS011;48929;47.910;20.390;2023-02-11T07:15:06;52.13;;;21.58;;
62844;SDS011;48929;47.910;20.390;2023-02-11T07:17:35;52.42;;;22.90;;
62844;SDS011;48929;47.910;20.390;2023-02-11T07:20:04;65.20;;;28.70;;
62844;SDS011;48929;47.910;20.390;2023-02-11T07:22:34;67.63;;;25.58;;
62844;SDS011;48929;47.910;20.390;2023-02-11T07:25:04;59.42;;;27.58;;
62844;SDS011;48929;47.910;20.390;2023-02-11T07:27:35;59.20;;;26.55;;
62844;SDS011;48929;47.910;20.390;2023-02-11T07:30:07;67.70;;;28.80;;
62844;SDS011;48929;47.910;20.390;2023-02-11T07:32:36;63.97;;;29.83;;
62844;SDS011;48929;47.910;20.390;2023-02-11T07:35:05;62.75;;;28.05;;
62844;SDS011;48929;47.910;20.390;2023-02-11T07:37:35;66.20;;;28.85;;
62844;SDS011;48929;47.910;20.390;2023-02-11T07:40:07;65.22;;;27.83;;
62844;SDS011;48929;47.910;20.390;2023-02-11T07:42:36;61.03;;;26.63;;
62844;SDS011;48929;47.910;20.390;2023-02-11T07:45:09;55.10;;;24.40;;
62844;SDS011;48929;47.910;20.390;2023-02-11T07:47:38;56.53;;;25.20;;
62844;SDS011;48929;47.910;20.390;2023-02-11T07:50:08;56.60;;;26.05;;
62844;SDS011;48929;47.910;20.390;2023-02-11T07:52:37;55.90;;;26.02;;
62844;SDS011;48929;47.910;20.390;2023-02-11T07:55:06;63.67;;;32.13;;
62844;SDS011;48929;47.910;20.390;2023-02-11T07:57:36;73.07;;;32.05;;
62844;SDS011;48929;47.910;20.390;2023-02-11T08:00:05;79.22;;;33.17;;
62844;SDS011;48929;47.910;20.390;2023-02-11T08:02:36;73.47;;;32.53;;
62844;SDS011;48929;47.910;20.390;2023-02-11T08:05:05;80.30;;;33.42;;
62844;SDS011;48929;47.910;20.390;2023-02-11T08:07:34;74.65;;;32.42;;
62844;SDS011;48929;47.910;20.390;2023-02-11T08:10:03;70.90;;;29.98;;
62844;SDS011;48929;47.910;20.390;2023-02-11T08:12:32;63.42;;;29.90;;
62844;SDS011;48929;47.910;20.390;2023-02-11T08:15:01;64.28;;;31.23;;
62844;SDS011;48929;47.910;20.390;2023-02-11T08:17:30;66.53;;;27.83;;
62844;SDS011;48929;47.910;20.390;2023-02-11T08:20:01;68.70;;;28.80;;
62844;SDS011;48929;47.910;20.390;2023-02-11T08:22:33;76.53;;;31.65;;
62844;SDS011;48929;47.910;20.390;2023-02-11T08:25:02;60.33;;;26.08;;
62844;SDS011;48929;47.910;20.390;2023-02-11T08:27:31;59.25;;;24.98;;
62844;SDS011;48929;47.910;20.390;2023-02-11T08:30:00;71.75;;;28.13;;
62844;SDS011;48929;47.910;20.390;2023-02-11T08:32:33;60.03;;;26.05;;
62844;SDS011;48929;47.910;20.390;2023-02-11T08:35:04;59.70;;;25.52;;
62844;SDS011;48929;47.910;20.390;2023-02-11T08:37:33;59.72;;;25.75;;
62844;SDS011;48929;47.910;20.390;2023-02-11T08:40:03;49.45;;;22.13;;
62844;SDS011;48929;47.910;20.390;2023-02-11T08:42:34;54.75;;;23.38;;
62844;SDS011;48929;47.910;20.390;2023-02-11T08:45:03;53.75;;;22.08;;
62844;SDS011;48929;47.910;20.390;2023-02-11T08:47:32;53.97;;;24.65;;
62844;SDS011;48929;47.910;20.390;2023-02-11T08:50:11;56.83;;;24.77;;
62844;SDS011;48929;47.910;20.390;2023-02-11T08:52:40;60.78;;;27.63;;
62844;SDS011;48929;47.910;20.390;2023-02-11T08:55:10;58.90;;;27.77;;
62844;SDS011;48929;47.910;20.390;2023-02-11T08:57:39;58.17;;;25.95;;
62844;SDS011;48929;47.910;20.390;2023-02-11T09:00:08;59.13;;;25.73;;
62844;SDS011;48929;47.910;20.390;2023-02-11T09:02:38;94.13;;;41.00;;
62844;SDS011;48929;47.910;20.390;2023-02-11T09:05:07;74.55;;;34.97;;
62844;SDS011;48929;47.910;20.390;2023-02-11T09:07:38;58.65;;;26.67;;
62844;SDS011;48929;47.910;20.390;2023-02-11T09:10:07;63.47;;;26.83;;
62844;SDS011;48929;47.910;20.390;2023-02-11T09:12:36;61.53;;;25.17;;
62844;SDS011;48929;47.910;20.390;2023-02-11T09:15:08;61.40;;;27.13;;
62844;SDS011;48929;47.910;20.390;2023-02-11T09:17:37;59.63;;;26.95;;
62844;SDS011;48929;47.910;20.390;2023-02-11T09:20:06;61.97;;;28.38;;
62844;SDS011;48929;47.910;20.390;2023-02-11T09:22:38;57.72;;;24.77;;
62844;SDS011;48929;47.910;20.390;2023-02-11T09:25:07;58.60;;;25.67;;
62844;SDS011;48929;47.910;20.390;2023-02-11T09:27:36;61.05;;;26.65;;
62844;SDS011;48929;47.910;20.390;2023-02-11T09:30:05;63.70;;;26.90;;
62844;SDS011;48929;47.910;20.390;2023-02-11T09:32:35;56.55;;;26.40;;
62844;SDS011;48929;47.910;20.390;2023-02-11T09:35:04;57.50;;;26.63;;
62844;SDS011;48929;47.910;20.390;2023-02-11T09:37:33;60.28;;;25.70;;
62844;SDS011;48929;47.910;20.390;2023-02-11T09:40:05;64.55;;;28.17;;
62844;SDS011;48929;47.910;20.390;2023-02-11T09:45:30;55.88;;;24.65;;
62844;SDS011;48929;47.910;20.390;2023-02-11T09:48:00;58.40;;;26.33;;
62844;SDS011;48929;47.910;20.390;2023-02-11T09:50:33;58.35;;;25.90;;
62844;SDS011;48929;47.910;20.390;2023-02-11T09:53:03;56.85;;;24.33;;
62844;SDS011;48929;47.910;20.390;2023-02-11T09:55:39;52.85;;;25.25;;
62844;SDS011;48929;47.910;20.390;2023-02-11T09:58:11;58.83;;;25.63;;
62844;SDS011;48929;47.910;20.390;2023-02-11T10:00:45;53.28;;;25.88;;
62844;SDS011;48929;47.910;20.390;2023-02-11T10:03:25;52.78;;;23.40;;
62844;SDS011;48929;47.910;20.390;2023-02-11T10:06:18;53.25;;;24.02;;
62844;SDS011;48929;47.910;20.390;2023-02-11T10:09:01;54.90;;;25.08;;
62844;SDS011;48929;47.910;20.390;2023-02-11T10:11:39;56.93;;;25.97;;
62844;SDS011;48929;47.910;20.390;2023-02-11T10:14:20;51.70;;;23.63;;
62844;SDS011;48929;47.910;20.390;2023-02-11T10:17:01;56.03;;;25.65;;
62844;SDS011;48929;47.910;20.390;2023-02-11T10:19:45;54.40;;;25.48;;
62844;SDS011;48929;47.910;20.390;2023-02-11T10:22:26;54.67;;;25.73;;
62844;SDS011;48929;47.910;20.390;2023-02-11T10:24:58;52.63;;;23.35;;
62844;SDS011;48929;47.910;20.390;2023-02-11T10:27:30;56.22;;;23.92;;
62844;SDS011;48929;47.910;20.390;2023-02-11T10:30:02;51.78;;;24.38;;
62844;SDS011;48929;47.910;20.390;2023-02-11T10:32:34;60.20;;;26.80;;
62844;SDS011;48929;47.910;20.390;2023-02-11T10:35:11;49.83;;;23.58;;
62844;SDS011;48929;47.910;20.390;2023-02-11T10:37:46;55.08;;;24.65;;
62844;SDS011;48929;47.910;20.390;2023-02-11T10:40:16;50.85;;;24.58;;
62844;SDS011;48929;47.910;20.390;2023-02-11T10:42:49;51.70;;;24.73;;
62844;SDS011;48929;47.910;20.390;2023-02-11T10:45:22;61.70;;;28.48;;
62844;SDS011;48929;47.910;20.390;2023-02-11T10:47:54;55.78;;;24.63;;
62844;SDS011;48929;47.910;20.390;2023-02-11T10:50:25;62.70;;;26.35;;
62844;SDS011;48929;47.910;20.390;2023-02-11T10:53:14;54.80;;;25.90;;
62844;SDS011;48929;47.910;20.390;2023-02-11T10:55:49;48.13;;;23.25;;
62844;SDS011;48929;47.910;20.390;2023-02-11T10:58:25;60.42;;;28.38;;
62844;SDS011;48929;47.910;20.390;2023-02-11T11:00:57;51.65;;;24.75;;
62844;SDS011;48929;47.910;20.390;2023-02-11T11:03:28;61.58;;;25.58;;
62844;SDS011;48929;47.910;20.390;2023-02-11T11:06:01;61.97;;;29.25;;
62844;SDS011;48929;47.910;20.390;2023-02-11T11:08:36;53.58;;;25.38;;
62844;SDS011;48929;47.910;20.390;2023-02-11T11:11:08;56.22;;;24.98;;
62844;SDS011;48929;47.910;20.390;2023-02-11T11:13:40;54.78;;;23.85;;
62844;SDS011;48929;47.910;20.390;2023-02-11T11:16:20;72.93;;;37.45;;
62844;SDS011;48929;47.910;20.390;2023-02-11T11:18:51;58.65;;;30.90;;
62844;SDS011;48929;47.910;20.390;2023-02-11T11:21:42;57.83;;;27.13;;
62844;SDS011;48929;47.910;20.390;2023-02-11T11:24:14;51.80;;;25.30;;
62844;SDS011;48929;47.910;20.390;2023-02-11T11:26:46;59.70;;;27.23;;
62844;SDS011;48929;47.910;20.390;2023-02-11T11:29:19;50.67;;;24.35;;
62844;SDS011;48929;47.910;20.390;2023-02-11T11:31:58;56.78;;;24.95;;
62844;SDS011;48929;47.910;20.390;2023-02-11T11:34:31;60.90;;;26.33;;
62844;SDS011;48929;47.910;20.390;2023-02-11T11:37:09;61.63;;;29.20;;
62844;SDS011;48929;47.910;20.390;2023-02-11T11:39:39;52.85;;;24.02;;
62844;SDS011;48929;47.910;20.390;2023-02-11T11:42:21;57.05;;;26.13;;
62844;SDS011;48929;47.910;20.390;2023-02-11T11:45:21;59.97;;;26.75;;
62844;SDS011;48929;47.910;20.390;2023-02-11T11:47:52;57.38;;;25.83;;
62844;SDS011;48929;47.910;20.390;2023-02-11T11:50:26;62.88;;;28.17;;
62844;SDS011;48929;47.910;20.390;2023-02-11T11:53:03;53.70;;;25.33;;
62844;SDS011;48929;47.910;20.390;2023-02-11T11:55:36;55.08;;;25.83;;
62844;SDS011;48929;47.910;20.390;2023-02-11T11:58:09;60.47;;;28.52;;
62844;SDS011;48929;47.910;20.390;2023-02-11T12:00:47;55.42;;;26.88;;
62844;SDS011;48929;47.910;20.390;2023-02-11T12:03:31;53.80;;;24.42;;
62844;SDS011;48929;47.910;20.390;2023-02-11T12:06:20;47.58;;;21.75;;
62844;SDS011;48929;47.910;20.390;2023-02-11T12:09:00;53.47;;;24.50;;
62844;SDS011;48929;47.910;20.390;2023-02-11T12:11:38;50.65;;;23.55;;
62844;SDS011;48929;47.910;20.390;2023-02-11T12:14:21;49.50;;;22.95;;
62844;SDS011;48929;47.910;20.390;2023-02-11T12:17:00;48.67;;;23.27;;
62844;SDS011;48929;47.910;20.390;2023-02-11T12:19:37;53.67;;;23.38;;
62844;SDS011;48929;47.910;20.390;2023-02-11T12:22:18;69.93;;;32.53;;
62844;SDS011;48929;47.910;20.390;2023-02-11T12:24:55;51.58;;;24.38;;
62844;SDS011;48929;47.910;20.390;2023-02-11T12:27:37;52.58;;;25.15;;
62844;SDS011;48929;47.910;20.390;2023-02-11T12:30:23;49.40;;;24.80;;
62844;SDS011;48929;47.910;20.390;2023-02-11T12:33:21;55.53;;;25.95;;
62844;SDS011;48929;47.910;20.390;2023-02-11T12:36:02;48.17;;;24.02;;
62844;SDS011;48929;47.910;20.390;2023-02-11T12:38:45;49.63;;;22.73;;
62844;SDS011;48929;47.910;20.390;2023-02-11T12:41:38;51.50;;;25.73;;
62844;SDS011;48929;47.910;20.390;2023-02-11T12:44:34;44.13;;;21.40;;
62844;SDS011;48929;47.910;20.390;2023-02-11T12:47:19;42.90;;;21.65;;
62844;SDS011;48929;47.910;20.390;2023-02-11T12:52:51;39.08;;;18.83;;
62844;SDS011;48929;47.910;20.390;2023-02-11T12:55:32;42.50;;;20.13;;
62844;SDS011;48929;47.910;20.390;2023-02-11T12:58:04;39.50;;;20.58;;
62844;SDS011;48929;47.910;20.390;2023-02-11T13:00:39;30.58;;;15.82;;
62844;SDS011;48929;47.910;20.390;2023-02-11T13:03:16;27.70;;;14.02;;
62844;SDS011;48929;47.910;20.390;2023-02-11T13:05:52;33.03;;;14.90;;
62844;SDS011;48929;47.910;20.390;2023-02-11T13:08:24;29.85;;;13.30;;
62844;SDS011;48929;47.910;20.390;2023-02-11T13:10:57;35.78;;;16.55;;
62844;SDS011;48929;47.910;20.390;2023-02-11T13:13:33;28.42;;;13.20;;
62844;SDS011;48929;47.910;20.390;2023-02-11T13:16:06;34.38;;;15.85;;
62844;SDS011;48929;47.910;20.390;2023-02-11T13:18:46;29.88;;;13.60;;
62844;SDS011;48929;47.910;20.390;2023-02-11T13:21:30;33.92;;;16.27;;
62844;SDS011;48929;47.910;20.390;2023-02-11T13:24:12;30.13;;;13.80;;
62844;SDS011;48929;47.910;20.390;2023-02-11T13:26:52;37.72;;;17.95;;
62844;SDS011;48929;47.910;20.390;2023-02-11T13:29:29;35.60;;;16.30;;
62844;SDS011;48929;47.910;20.390;2023-02-11T13:32:09;29.83;;;12.88;;
62844;SDS011;48929;47.910;20.390;2023-02-11T13:34:53;32.90;;;16.50;;
62844;SDS011;48929;47.910;20.390;2023-02-11T13:37:27;32.30;;;16.27;;
62844;SDS011;48929;47.910;20.390;2023-02-11T13:40:06;36.15;;;16.58;;
62844;SDS011;48929;47.910;20.390;2023-02-11T13:42:48;29.40;;;14.02;;
62844;SDS011;48929;47.910;20.390;2023-02-11T13:45:25;27.73;;;14.57;;
62844;SDS011;48929;47.910;20.390;2023-02-11T13:47:57;23.38;;;12.80;;
62844;SDS011;48929;47.910;20.390;2023-02-11T13:50:27;27.55;;;14.20;;
62844;SDS011;48929;47.910;20.390;2023-02-11T13:53:06;34.80;;;16.38;;
62844;SDS011;48929;47.910;20.390;2023-02-11T13:55:35;34.13;;;16.50;;
62844;SDS011;48929;47.910;20.390;2023-02-11T13:58:17;31.52;;;15.13;;
62844;SDS011;48929;47.910;20.390;2023-02-11T14:01:02;31.20;;;15.30;;
62844;SDS011;48929;47.910;20.390;2023-02-11T14:03:32;36.80;;;17.08;;
62844;SDS011;48929;47.910;20.390;2023-02-11T14:06:21;34.20;;;15.38;;
62844;SDS011;48929;47.910;20.390;2023-02-11T14:12:18;28.02;;;13.02;;
62844;SDS011;48929;47.910;20.390;2023-02-11T14:14:58;23.92;;;12.07;;
62844;SDS011;48929;47.910;20.390;2023-02-11T14:17:46;20.58;;;10.15;;
62844;SDS011;48929;47.910;20.390;2023-02-11T14:23:20;30.30;;;16.23;;
62844;SDS011;48929;47.910;20.390;2023-02-11T14:26:22;28.58;;;14.23;;
62844;SDS011;48929;47.910;20.390;2023-02-11T14:29:06;28.02;;;12.63;;
62844;SDS011;48929;47.910;20.390;2023-02-11T14:31:45;28.15;;;12.02;;
62844;SDS011;48929;47.910;20.390;2023-02-11T14:34:32;25.92;;;12.75;;
62844;SDS011;48929;47.910;20.390;2023-02-11T14:37:13;29.05;;;12.90;;
62844;SDS011;48929;47.910;20.390;2023-02-11T14:39:59;28.00;;;12.20;;
62844;SDS011;48929;47.910;20.390;2023-02-11T14:42:39;30.17;;;14.80;;
62844;SDS011;48929;47.910;20.390;2023-02-11T14:45:12;32.05;;;13.95;;
62844;SDS011;48929;47.910;20.390;2023-02-11T14:47:54;27.88;;;12.52;;
62844;SDS011;48929;47.910;20.390;2023-02-11T14:50:32;27.33;;;13.27;;
62844;SDS011;48929;47.910;20.390;2023-02-11T14:53:06;26.38;;;12.25;;
62844;SDS011;48929;47.910;20.390;2023-02-11T14:55:45;29.75;;;14.00;;
62844;SDS011;48929;47.910;20.390;2023-02-11T14:58:21;30.35;;;13.40;;
62844;SDS011;48929;47.910;20.390;2023-02-11T15:00:53;28.73;;;13.93;;
62844;SDS011;48929;47.910;20.390;2023-02-11T15:03:28;32.10;;;13.80;;